Time;durP1;ratioP1;P1;durP2;ratioP2;P2;SDS_P1;SDS_P2;PMS_P1;PMS_P2;Temp;Humidity;BMP_temperature;BMP_pressure;BME280_temperature;BME280_humidity;BME280_pressure;Samples;Min_cycle;Max_cycle;Signal;HPM_P1;HPM_P2
2023/11/30 00:01:39;;;;;;;;;18.25;17.25;;;;;11.84;66.69;100718.41;146610;613;46034;-71
2023/11/30 00:04:37;;;;;;;;;21.50;18.50;;;;;11.76;67.57;100720.62;146613;585;46010;-70
2023/11/30 00:07:38;;;;;;;;;29.00;26.75;;;;;11.67;67.92;100721.91;146607;661;46017;-71
2023/11/30 00:10:38;;;;;;;;;30.50;25.00;;;;;11.57;69.08;100715.41;146609;582;47010;-69
2023/11/30 00:13:37;;;;;;;;;24.00;21.00;;;;;11.50;68.89;100724.63;146610;732;46016;-69
2023/11/30 00:16:31;;;;;;;;;24.25;24.00;;;;;11.48;68.88;100736.62;146608;572;47010;-70
2023/11/30 00:19:36;;;;;;;;;17.75;17.00;;;;;11.49;68.88;100740.09;146610;602;46012;-70
2023/11/30 00:22:41;;;;;;;;;17.25;15.25;;;;;9.84;67.73;100455.44;146616;630;46010;-70
2023/11/30 00:25:39;;;;;;;;;16.25;13.00;;;;;11.43;68.45;100734.63;146610;573;46012;-70
2023/11/30 00:28:43;;;;;;;;;17.50;15.75;;;;;11.40;68.49;100742.25;146615;620;46010;-70
2023/11/30 00:31:35;;;;;;;;;12.75;11.25;;;;;11.36;68.57;100749.00;146607;610;46016;-71
2023/11/30 00:34:43;;;;;;;;;16.75;12.50;;;;;11.35;68.51;100757.62;146613;630;47010;-70
2023/11/30 00:37:48;;;;;;;;;12.25;11.00;;;;;11.26;68.36;100760.66;146608;584;46012;-77
2023/11/30 00:40:43;;;;;;;;;12.50;10.75;;;;;11.22;68.46;100763.03;146614;578;47010;-73
2023/11/30 00:43:45;;;;;;;;;9.75;9.00;;;;;11.14;67.89;100762.66;146609;609;47012;-73
2023/11/30 00:46:45;;;;;;;;;8.75;8.25;;;;;11.14;68.45;100774.75;146608;611;46020;-73
2023/11/30 00:49:49;;;;;;;;;15.75;14.00;;;;;11.11;68.41;100778.06;146616;592;46012;-76
2023/11/30 00:52:50;;;;;;;;;11.25;8.75;;;;;11.03;68.48;100779.41;146614;584;46029;-75
2023/11/30 00:55:46;;;;;;;;;13.25;13.25;;;;;10.94;69.48;100781.53;146613;614;46016;-73
2023/11/30 00:58:46;;;;;;;;;15.00;12.00;;;;;10.90;69.21;100790.84;146614;581;46021;-76
2023/11/30 01:02:17;;;;;;;;;13.75;11.75;;;;;10.82;69.71;100787.88;146610;613;47012;-77
2023/11/30 01:05:18;;;;;;;;;14.00;12.00;;;;;10.78;69.40;100798.03;146612;577;46020;-75
2023/11/30 01:08:16;;;;;;;;;15.75;14.00;;;;;10.71;70.37;100796.78;146611;658;46016;-75
2023/11/30 01:11:12;;;;;;;;;15.00;12.50;;;;;10.71;70.37;100798.50;146613;598;46020;-75
2023/11/30 01:14:15;;;;;;;;;10.75;10.75;;;;;10.71;70.07;100801.97;146612;569;46016;-76
2023/11/30 01:17:09;;;;;;;;;12.50;11.25;;;;;10.71;70.65;100801.09;146631;563;46010;-75
2023/11/30 01:20:17;;;;;;;;;;;;;;;;;;;;;
2023/11/30 01:23:28;;;;;;;;;13.25;11.50;;;;;10.73;69.92;100809.84;146634;586;45023;-75
2023/11/30 01:26:44;;;;;;;;;13.50;11.00;;;;;9.14;69.82;100528.63;146634;654;45016;-78
2023/11/30 01:29:45;;;;;;;;;10.25;9.00;;;;;10.79;70.36;100817.97;146637;582;45010;-73
2023/11/30 01:32:58;;;;;;;;;13.25;9.00;;;;;9.21;69.03;100535.03;146634;664;45012;-74
2023/11/30 01:35:56;;;;;;;;;12.50;9.25;;;;;10.88;69.62;100815.84;146637;582;45011;-72
2023/11/30 01:39:06;;;;;;;;;9.75;9.00;;;;;9.29;68.44;100528.56;146633;672;45016;-72
2023/11/30 01:42:12;;;;;;;;;8.50;8.00;;;;;10.93;68.63;100805.69;146638;720;45010;-72
2023/11/30 01:45:25;;;;;;;;;8.25;6.25;;;;;9.30;67.76;100524.28;146633;583;45017;-73
2023/11/30 01:48:30;;;;;;;;;7.25;7.25;;;;;10.91;67.24;100805.63;146632;577;45020;-73
2023/11/30 01:51:47;;;;;;;;;5.25;5.25;;;;;10.81;67.49;100809.44;146630;604;46017;-74
2023/11/30 01:54:52;;;;;;;;;12.75;10.00;;;;;10.63;68.17;100811.97;146637;627;45020;-72
2023/11/30 01:57:48;;;;;;;;;10.00;6.50;;;;;10.50;68.70;100809.56;146635;622;46013;-71
2023/11/30 02:00:45;;;;;;;;;4.25;4.00;;;;;10.40;68.78;100807.25;146631;576;47010;-73
2023/11/30 02:03:45;;;;;;;;;3.25;3.25;;;;;10.37;69.04;100815.78;146631;621;46012;-70
2023/11/30 02:06:49;;;;;;;;;2.00;1.00;;;;;10.35;68.95;100819.09;146636;571;45029;-71
2023/11/30 02:09:44;;;;;;;;;2.50;2.50;;;;;10.38;69.12;100819.28;146634;647;45916;-71
2023/11/30 02:12:45;;;;;;;;;4.25;4.25;;;;;10.36;68.85;100819.16;146637;702;45011;-70
2023/11/30 02:15:49;;;;;;;;;6.75;4.50;;;;;10.31;69.80;100817.13;146624;576;46014;-70
2023/11/30 02:19:09;;;;;;;;;4.25;3.00;;;;;10.27;70.34;100821.28;146611;594;46020;-70
2023/11/30 02:22:04;;;;;;;;;5.25;4.25;;;;;10.26;70.03;100835.03;146613;595;47012;-73
2023/11/30 02:24:59;;;;;;;;;7.00;4.25;;;;;10.27;69.92;100843.72;146620;598;46020;-74
2023/11/30 02:28:05;;;;;;;;;5.25;5.25;;;;;10.26;69.70;100844.50;146611;580;47012;-74
2023/11/30 02:31:16;;;;;;;;;5.75;3.75;;;;;10.27;68.96;100846.31;146619;652;46020;-73
2023/11/30 02:34:21;;;;;;;;;;;;;;;;;;;;;
2023/11/30 02:37:14;;;;;;;;;4.75;3.75;;;;;10.23;69.44;100839.16;146619;570;46020;-75
2023/11/30 02:40:27;;;;;;;;;4.75;4.25;;;;;8.74;69.17;100604.00;146616;666;46016;-74
2023/11/30 02:43:23;;;;;;;;;6.75;5.25;;;;;10.05;70.31;100855.44;146620;617;46020;-74
2023/11/30 02:46:31;;;;;;;;;6.00;3.50;;;;;9.19;69.80;100723.81;146618;572;46916;-74
2023/11/30 02:49:27;;;;;;;;;5.50;4.75;;;;;9.92;71.06;100845.22;146605;584;46014;-71
2023/11/30 02:52:32;;;;;;;;;6.75;5.25;;;;;9.92;71.19;100848.69;146614;626;46016;-71
2023/11/30 02:55:33;;;;;;;;;3.50;3.50;;;;;9.92;71.17;100848.69;146616;577;46916;-73
2023/11/30 02:58:28;;;;;;;;;4.00;4.00;;;;;9.98;70.97;100849.84;146615;643;46016;-71
2023/11/30 03:01:32;;;;;;;;;4.25;3.75;;;;;10.01;71.10;100852.62;146622;578;46010;-71
2023/11/30 03:04:45;;;;;;;;;4.25;3.50;;;;;10.00;70.65;100863.78;146616;579;46916;-71
2023/11/30 03:08:21;;;;;;;;;3.00;3.00;;;;;9.95;69.99;100874.78;146620;570;46020;-71
2023/11/30 03:11:16;;;;;;;;;4.75;4.00;;;;;9.87;70.86;100876.03;146612;608;46016;-70
2023/11/30 03:14:33;;;;;;;;;3.00;2.00;;;;;9.81;71.42;100878.31;146614;619;47010;-70
2023/11/30 03:17:29;;;;;;;;;2.25;2.25;;;;;9.81;71.24;100873.12;146633;606;45916;-71
2023/11/30 03:20:38;;;;;;;;;2.50;2.50;;;;;9.82;70.90;100871.44;146629;577;45021;-74
2023/11/30 03:23:43;;;;;;;;;2.75;2.75;;;;;8.26;70.19;100591.75;146636;600;45016;-77
2023/11/30 03:26:35;;;;;;;;;2.50;2.50;;;;;10.02;70.87;100882.88;146634;576;46010;-76
2023/11/30 03:29:47;;;;;;;;;2.00;2.00;;;;;10.08;70.22;100885.81;146632;698;45012;-79
2023/11/30 03:32:50;;;;;;;;;3.00;2.25;;;;;10.10;69.67;100885.09;146638;592;45020;-80
2023/11/30 03:36:03;;;;;;;;;;;;;;;;;;;;;
2023/11/30 03:39:07;;;;;;;;;2.25;2.00;;;;;10.03;69.66;100892.44;146637;696;45031;-76
2023/11/30 03:42:05;;;;;;;;;1.25;1.00;;;;;10.05;69.46;100896.00;146621;628;46017;-75
2023/11/30 03:45:04;;;;;;;;;1.00;1.00;;;;;10.03;69.34;100897.63;146633;636;45032;-71
2023/11/30 03:48:18;;;;;;;;;0.75;0.25;;;;;8.37;68.45;100602.69;146635;620;45013;-72
2023/11/30 03:51:29;;;;;;;;;0.25;0.25;;;;;8.29;68.55;100585.06;146629;637;45020;-72
2023/11/30 03:54:35;;;;;;;;;0.00;0.00;;;;;10.04;69.12;100883.88;146635;623;45016;-73
2023/11/30 03:57:33;;;;;;;;;0.75;0.00;;;;;10.07;69.31;100895.31;146635;598;45021;-73
2023/11/30 04:00:36;;;;;;;;;0.50;0.50;;;;;10.16;69.19;100889.75;146634;648;45016;-74
2023/11/30 04:03:35;;;;;;;;;1.50;0.50;;;;;10.25;68.80;100897.09;146637;583;45019;-73
2023/11/30 04:06:49;;;;;;;;;1.00;0.00;;;;;10.25;68.12;100891.94;146632;650;45913;-75
2023/11/30 04:09:47;;;;;;;;;2.00;1.25;;;;;10.24;68.80;100892.75;146638;622;45020;-74
2023/11/30 04:12:59;;;;;;;;;1.75;1.75;;;;;10.27;68.34;100903.31;146634;637;45914;-73
2023/11/30 04:15:54;;;;;;;;;1.50;1.50;;;;;10.29;68.44;100896.53;146629;572;45020;-73
2023/11/30 04:19:01;;;;;;;;;4.25;3.75;;;;;10.31;68.17;100905.25;146615;564;46017;-74
2023/11/30 04:22:00;;;;;;;;;4.75;3.75;;;;;10.28;68.01;100918.03;146612;714;46010;-74
2023/11/30 04:24:58;;;;;;;;;4.50;3.00;;;;;10.23;68.39;100922.06;146615;576;46016;-74
2023/11/30 04:27:57;;;;;;;;;6.00;5.00;;;;;10.21;67.94;100931.44;146619;620;46010;-73
2023/11/30 04:30:52;;;;;;;;;4.75;4.25;;;;;10.14;69.50;100944.06;146618;651;46914;-74
2023/11/30 04:34:04;;;;;;;;;6.75;6.00;;;;;10.06;69.63;100940.16;146619;574;46021;-72
2023/11/30 04:37:09;;;;;;;;;6.00;5.00;;;;;10.01;69.17;100945.87;146618;622;46912;-73
2023/11/30 04:40:01;;;;;;;;;1.50;1.00;;;;;9.94;71.35;100945.53;146706;565;46023;-73
2023/11/30 04:43:01;;;;;;;;;8.50;6.00;;;;;9.87;71.15;100945.06;146627;572;46012;-74
2023/11/30 04:45:53;;;;;;;;;6.00;4.00;;;;;9.27;71.06;100843.25;146628;577;47010;-74
2023/11/30 04:49:04;;;;;;;;;4.50;4.50;;;;;9.83;71.58;100940.53;146626;574;46016;-73
2023/11/30 04:51:59;;;;;;;;;9.25;6.25;;;;;9.82;71.28;100939.66;146625;564;46020;-74
2023/11/30 04:54:59;;;;;;;;;7.50;6.75;;;;;9.78;71.64;100948.06;146621;609;46016;-74
2023/11/30 04:57:55;;;;;;;;;5.75;5.75;;;;;9.74;71.42;100953.84;146628;674;46010;-73
2023/11/30 05:00:52;;;;;;;;;4.75;4.75;;;;;9.73;71.67;100965.00;146625;597;46016;-72
2023/11/30 05:03:59;;;;;;;;;5.00;4.75;;;;;9.70;71.42;100981.25;146632;605;46020;-71
2023/11/30 05:06:53;;;;;;;;;9.00;5.50;;;;;9.68;71.82;100977.66;146621;573;46012;-72
2023/11/30 05:09:51;;;;;;;;;4.50;4.50;;;;;9.67;71.68;100983.66;146627;601;46010;-72
2023/11/30 05:13:04;;;;;;;;;4.75;4.50;;;;;9.66;71.12;100984.47;146626;597;46012;-73
2023/11/30 05:16:09;;;;;;;;;2.50;1.50;;;;;9.66;71.47;100984.47;146628;589;46021;-72
2023/11/30 05:19:07;;;;;;;;;4.75;3.75;;;;;9.66;71.35;100989.66;146623;619;47012;-72
2023/11/30 05:21:59;;;;;;;;;2.50;2.25;;;;;9.64;71.21;100991.25;146627;591;46010;-72
2023/11/30 05:25:02;;;;;;;;;2.00;2.00;;;;;9.67;70.62;100995.72;146620;608;47017;-72
2023/11/30 05:28:27;;;;;;;;;1.00;1.00;;;;;9.60;70.09;100972.87;146628;565;46010;-76
2023/11/30 05:31:29;;;;;;;;;1.25;1.25;;;;;9.74;70.85;100989.19;146622;679;47014;-74
2023/11/30 05:34:29;;;;;;;;;1.50;1.00;;;;;9.79;70.72;100995.56;146625;565;47014;-70
2023/11/30 05:37:47;;;;;;;;;1.50;0.50;;;;;9.90;70.51;100986.69;146621;564;48012;-71
2023/11/30 05:40:45;;;;;;;;;0.00;0.00;;;;;10.01;70.46;100988.22;146621;657;46020;-69
2023/11/30 05:43:58;;;;;;;;;2.00;1.50;;;;;10.13;70.19;100990.63;146617;630;46012;-73
2023/11/30 05:46:55;;;;;;;;;3.00;0.75;;;;;10.25;69.88;100999.09;146623;632;46021;-74
2023/11/30 05:49:47;;;;;;;;;4.50;3.25;;;;;10.36;69.59;101004.91;146618;602;46913;-72
2023/11/30 05:52:55;;;;;;;;;;;;;;;;;;;;;
2023/11/30 05:56:05;;;;;;;;;7.50;7.50;;;;;9.49;67.44;100837.63;146614;711;46016;-74
2023/11/30 05:58:59;;;;;;;;;11.25;9.25;;;;;10.44;68.05;101008.84;146621;615;46010;-72
2023/11/30 06:02:10;;;;;;;;;11.50;11.50;;;;;10.43;67.59;101009.63;146616;578;46014;-72
2023/11/30 06:05:05;;;;;;;;;18.25;15.50;;;;;10.46;68.38;101014.09;146615;602;46020;-72
2023/11/30 06:08:09;;;;;;;;;16.50;13.50;;;;;10.47;67.98;101021.09;146609;592;46016;-70
2023/11/30 06:11:05;;;;;;;;;17.25;15.25;;;;;10.53;68.60;101029.19;146613;750;46010;-70
2023/11/30 06:14:04;;;;;;;;;16.00;15.25;;;;;10.81;70.10;101039.38;146609;759;46016;-70
2023/11/30 06:16:56;;;;;;;;;14.00;13.00;;;;;11.61;72.39;101048.88;146612;633;46020;-72
2023/11/30 06:19:52;;;;;;;;;27.50;19.50;;;;;12.61;67.32;101050.47;146609;570;46915;-72
2023/11/30 06:22:56;;;;;;;;;12.00;10.75;;;;;13.21;62.26;101044.56;146613;583;46021;-71
2023/11/30 06:25:58;;;;;;;;;;;;;;;;;;;;;
2023/11/30 06:29:14;;;;;;;;;;;;;;;;;;;;;
2023/11/30 06:32:25;;;;;;;;;84.67;73.67;;;;;14.03;59.93;101069.09;146611;622;46016;-72
2023/11/30 06:35:20;;;;;;;;;10.50;9.75;;;;;14.00;58.94;101063.75;146619;607;46020;-70
2023/11/30 06:38:21;;;;;;;;;15.25;12.75;;;;;13.90;59.35;101063.31;146617;573;46033;-70
2023/11/30 06:41:43;;;;;;;;;11.25;10.00;;;;;12.81;59.14;100889.22;146612;573;47014;-71
2023/11/30 06:44:40;;;;;;;;;10.00;8.25;;;;;13.72;59.48;101069.50;146611;579;46017;-70
2023/11/30 06:47:51;;;;;;;;;8.00;8.00;;;;;13.80;59.71;101070.75;146623;590;46010;-72
2023/11/30 06:50:54;;;;;;;;;12.00;9.00;;;;;13.90;59.48;101058.09;146616;574;47012;-72
2023/11/30 06:54:05;;;;;;;;;16.00;11.00;;;;;13.35;59.43;100941.94;146621;579;46021;-73
2023/11/30 06:56:58;;;;;;;;;9.25;8.00;;;;;14.22;62.85;101068.16;146611;593;46016;-73
2023/11/30 06:59:57;;;;;;;;;11.75;9.75;;;;;14.64;63.98;101075.09;146620;592;47011;-73
2023/11/30 07:03:15;;;;;;;;;12.00;9.00;;;;;15.12;60.89;101094.44;146615;569;46014;-75
2023/11/30 07:06:19;;;;;;;;;43.75;34.50;;;;;15.58;57.89;101105.75;146620;574;46021;-75
2023/11/30 07:09:26;;;;;;;;;26.75;22.25;;;;;15.83;59.16;101097.13;146607;622;46016;-74
2023/11/30 07:12:33;;;;;;;;;25.75;19.50;;;;;16.00;58.25;101102.94;146612;572;47010;-74
2023/11/30 07:15:32;;;;;;;;;24.25;18.75;;;;;16.17;59.01;101110.53;146607;606;47012;-73
2023/11/30 07:18:47;;;;;;;;;22.00;20.00;;;;;16.50;59.11;101119.47;146610;681;47014;-73
2023/11/30 07:21:55;;;;;;;;;27.75;25.50;;;;;16.81;54.86;101124.91;146612;599;46017;-72
2023/11/30 07:25:17;;;;;;;;;37.50;29.25;;;;;16.29;52.27;101010.63;146612;602;46020;-73
2023/11/30 07:28:33;;;;;;;;;32.00;28.50;;;;;16.84;53.33;101142.44;146609;593;47015;-73
2023/11/30 07:31:39;;;;;;;;;25.50;24.00;;;;;16.77;52.66;101143.09;146611;639;46021;-72
2023/11/30 07:34:35;;;;;;;;;24.75;22.00;;;;;16.68;52.08;101143.66;146606;604;48021;-73
2023/11/30 07:37:30;;;;;;;;;21.75;18.00;;;;;16.67;52.36;101154.97;146613;603;46011;-72
2023/11/30 07:40:45;;;;;;;;;23.50;18.75;;;;;15.97;53.31;101034.81;146611;604;46016;-72
2023/11/30 07:43:46;;;;;;;;;25.75;22.00;;;;;16.62;52.61;101157.41;146615;571;46011;-73
2023/11/30 07:46:40;;;;;;;;;30.50;28.50;;;;;16.75;53.81;101163.06;146610;636;47012;-73
2023/11/30 07:49:35;;;;;;;;;27.75;21.75;;;;;16.94;52.19;101169.81;146614;602;46020;-73
2023/11/30 07:52:27;;;;;;;;;21.00;20.25;;;;;17.12;52.72;101170.41;146608;599;47017;-73
2023/11/30 07:55:34;;;;;;;;;13.50;13.00;;;;;17.29;52.43;101173.59;146612;644;47020;-75
2023/11/30 07:58:45;;;;;;;;;16.25;15.25;;;;;17.48;53.14;101182.91;146612;592;47012;-75
2023/11/30 08:01:40;;;;;;;;;12.25;11.25;;;;;17.72;52.78;101182.72;146613;583;46030;-71
2023/11/30 08:04:48;;;;;;;;;10.75;9.25;;;;;17.95;51.73;101183.44;146612;566;46912;-72
2023/11/30 08:08:03;;;;;;;;;11.50;9.50;;;;;16.89;53.22;100968.00;146622;569;46021;-73
2023/11/30 08:11:01;;;;;;;;;11.25;10.50;;;;;18.40;50.86;101196.94;146613;600;47016;-73
2023/11/30 08:14:19;;;;;;;;;;;;;;;;;;;;;
2023/11/30 08:17:27;;;;;;;;;35.00;29.00;;;;;18.73;50.08;101196.09;146607;607;47016;-72
2023/11/30 08:20:43;;;;;;;;;15.50;14.00;;;;;17.62;50.44;100989.25;146615;634;46020;-71
2023/11/30 08:23:38;;;;;;;;;45.50;36.25;;;;;18.91;49.39;101201.81;146612;625;46016;-71
2023/11/30 08:26:46;;;;;;;;;56.25;42.50;;;;;19.04;49.09;101204.72;146613;563;47010;-71
2023/11/30 08:29:52;;;;;;;;;;;;;;;;;;;;;
2023/11/30 08:33:02;;;;;;;;;26.50;20.75;;;;;19.29;49.63;101207.09;146612;671;47010;-72
2023/11/30 08:36:11;;;;;;;;;22.00;18.00;;;;;19.38;48.94;101193.28;146607;588;46037;-71
2023/11/30 08:39:23;;;;;;;;;8.67;7.00;;;;;19.36;49.67;101198.47;146611;576;46916;-72
2023/11/30 08:42:18;;;;;;;;;7.75;7.00;;;;;19.20;49.94;101195.47;146612;730;47012;-72
2023/11/30 08:45:32;;;;;;;;;9.00;8.33;;;;;19.05;49.45;101195.97;146622;573;47010;-71
2023/11/30 08:48:29;;;;;;;;;5.33;5.00;;;;;18.93;50.94;101188.69;146612;584;47029;-71
2023/11/30 08:51:31;;;;;;;;;7.33;6.67;;;;;18.85;50.07;101183.25;146623;573;47010;-72
2023/11/30 08:54:38;;;;;;;;;3.00;3.00;;;;;18.86;52.85;101178.88;146614;602;47016;-71
2023/11/30 08:57:53;;;;;;;;;8.00;4.67;;;;;18.80;49.52;101174.34;146616;601;48010;-72
2023/11/30 09:00:54;;;;;;;;;7.00;6.00;;;;;18.62;50.60;101168.59;146620;643;46012;-71
2023/11/30 09:04:08;;;;;;;;;6.00;5.50;;;;;18.43;51.47;101169.88;146621;593;46020;-72
2023/11/30 09:07:10;;;;;;;;;11.75;11.00;;;;;18.27;49.95;101162.44;146616;580;48012;-72
2023/11/30 09:10:18;;;;;;;;;12.50;11.25;;;;;18.14;48.49;101169.97;146615;581;47010;-72
2023/11/30 09:13:16;;;;;;;;;11.25;11.00;;;;;18.13;50.14;101167.28;146608;570;47012;-71
2023/11/30 09:16:24;;;;;;;;;11.00;8.25;;;;;18.21;49.90;101164.03;146611;572;47021;-72
2023/11/30 09:19:18;;;;;;;;;9.00;7.67;;;;;18.20;47.36;101158.78;146619;603;46012;-72
2023/11/30 09:22:32;;;;;;;;;5.25;5.00;;;;;16.99;50.96;100948.22;146622;601;46014;-72
2023/11/30 09:25:33;;;;;;;;;4.67;2.67;;;;;18.42;48.28;101174.25;146612;573;48012;-72
2023/11/30 09:28:28;;;;;;;;;7.00;5.00;;;;;18.62;49.52;101169.50;146622;598;47021;-74
2023/11/30 09:31:32;;;;;;;;;3.67;3.00;;;;;18.78;48.34;101165.53;146620;624;46012;-73
2023/11/30 09:34:32;;;;;;;;;4.67;4.67;;;;;18.90;47.99;101170.22;146623;638;46014;-72
2023/11/30 09:37:34;;;;;;;;;5.00;3.67;;;;;18.97;47.23;101166.91;146618;566;46016;-72
2023/11/30 09:40:39;;;;;;;;;0.00;0.00;;;;;19.09;46.13;101174.16;146623;635;46020;-74
2023/11/30 09:43:38;;;;;;;;;2.67;1.33;;;;;19.24;46.59;101166.66;146615;596;47014;-71
2023/11/30 09:46:30;;;;;;;;;1.00;1.00;;;;;19.40;47.11;101167.88;146621;687;46010;-73
2023/11/30 09:49:40;;;;;;;;;1.67;0.00;;;;;19.52;47.44;101154.12;146618;632;46016;-71
2023/11/30 09:52:37;;;;;;;;;2.00;2.00;;;;;19.60;49.00;101156.06;146621;571;46029;-72
2023/11/30 09:55:44;;;;;;;;;4.00;3.00;;;;;19.62;49.04;101156.06;146615;563;46016;-72
2023/11/30 09:58:50;;;;;;;;;4.33;2.00;;;;;19.41;49.39;101151.25;146607;599;47010;-73
2023/11/30 10:01:58;;;;;;;;;1.67;0.67;;;;;19.29;48.51;101143.97;146617;622;47012;-73
2023/11/30 10:05:03;;;;;;;;;4.00;2.00;;;;;19.17;48.34;101148.97;146623;645;47011;-73
2023/11/30 10:08:09;;;;;;;;;4.00;3.67;;;;;19.23;48.57;101142.97;146618;569;47014;-73
2023/11/30 10:11:17;;;;;;;;;5.67;5.00;;;;;19.39;48.07;101129.28;146622;588;46010;-73
2023/11/30 10:14:24;;;;;;;;;5.00;4.00;;;;;19.61;47.37;101131.53;146617;590;46913;-73
2023/11/30 10:17:25;;;;;;;;;5.33;5.00;;;;;19.78;44.48;101123.09;146622;604;47027;-72
2023/11/30 10:20:17;;;;;;;;;5.00;3.75;;;;;19.86;45.53;101125.91;146618;733;47017;-72
2023/11/30 10:23:19;;;;;;;;;6.00;4.00;;;;;19.97;47.55;101116.47;146621;664;47020;-74
2023/11/30 10:26:33;;;;;;;;;3.00;2.67;;;;;20.14;45.76;101112.41;146617;581;47913;-72
2023/11/30 10:29:31;;;;;;;;;3.67;2.67;;;;;20.35;45.18;101111.91;146616;613;46020;-73
2023/11/30 10:32:39;;;;;;;;;;;;;;;;;;;;;
2023/11/30 10:35:35;;;;;;;;;2.00;2.00;;;;;20.73;44.01;101103.78;146622;604;46021;-73
2023/11/30 10:38:39;;;;;;;;;3.33;2.33;;;;;20.88;45.76;101097.87;146618;570;47012;-73
2023/11/30 10:42:05;;;;;;;;;2.67;2.67;;;;;21.03;47.60;101097.19;146620;644;46022;-73
2023/11/30 10:45:18;;;;;;;;;1.00;1.00;;;;;20.35;46.93;100959.16;146617;585;46017;-76
2023/11/30 10:48:32;;;;;;;;;3.00;2.00;;;;;19.93;45.61;100873.38;146623;570;47010;-76
2023/11/30 10:51:32;;;;;;;;;1.67;1.67;;;;;21.16;42.20;101096.53;146616;597;46038;-76
2023/11/30 10:55:03;;;;;;;;;2.67;1.00;;;;;21.16;45.44;101100.03;146623;579;47010;-75
2023/11/30 10:57:57;;;;;;;;;3.33;3.33;;;;;21.21;43.06;101092.19;146616;595;48014;-76
2023/11/30 11:01:00;;;;;;;;;7.00;6.00;;;;;21.26;43.86;101090.50;146613;599;47020;-76
2023/11/30 11:04:11;;;;;;;;;4.00;2.67;;;;;21.32;45.43;101087.06;146616;584;47013;-75
2023/11/30 11:07:24;;;;;;;;;2.67;1.00;;;;;21.50;46.21;101089.97;146618;597;47020;-76
2023/11/30 11:10:56;;;;;;;;;0.00;0.00;;;;;20.00;46.20;100808.56;146611;584;46014;-74
2023/11/30 11:13:50;;;;;;;;;2.00;2.00;;;;;21.60;42.84;101083.94;146617;627;46010;-77
2023/11/30 11:16:48;;;;;;;;;2.33;2.33;;;;;21.56;44.01;101082.13;146616;590;46035;-75
2023/11/30 11:19:55;;;;;;;;;4.00;2.00;;;;;21.43;44.73;101075.81;146620;594;46021;-76
2023/11/30 11:22:54;;;;;;;;;3.67;2.67;;;;;21.35;43.77;101079.19;146614;606;46016;-75
2023/11/30 11:26:06;;;;;;;;;1.00;1.00;;;;;19.94;46.55;100855.88;146623;591;46010;-75
2023/11/30 11:29:31;;;;;;;;;1.67;1.67;;;;;21.27;45.72;101080.81;146618;684;46016;-75
2023/11/30 11:32:50;;;;;;;;;3.00;1.00;;;;;20.74;45.75;100979.06;146617;605;47010;-75
2023/11/30 11:35:48;;;;;;;;;2.00;2.00;;;;;21.39;44.17;101070.47;146615;625;46017;-77
2023/11/30 11:38:58;;;;;;;;;2.67;1.00;;;;;21.40;44.16;101073.16;146623;624;46010;-76
2023/11/30 11:41:59;;;;;;;;;1.67;1.67;;;;;21.47;44.08;101060.91;146621;606;46015;-77
2023/11/30 11:45:27;;;;;;;;;1.00;1.00;;;;;20.32;44.96;100832.72;146621;584;46020;-75
2023/11/30 11:48:32;;;;;;;;;2.00;1.00;;;;;21.56;43.83;101052.22;146616;667;46017;-75
2023/11/30 11:51:34;;;;;;;;;4.00;3.00;;;;;21.53;42.77;101052.19;146622;579;46010;-75
2023/11/30 11:54:34;;;;;;;;;1.00;1.00;;;;;21.58;41.31;101051.34;146618;586;46012;-77
2023/11/30 11:57:49;;;;;;;;;7.67;7.33;;;;;21.64;44.31;101058.47;146621;579;47014;-77
2023/11/30 12:01:01;;;;;;;;;2.00;2.00;;;;;21.77;41.71;101048.91;146620;584;46016;-75
2023/11/30 12:03:59;;;;;;;;;1.00;0.00;;;;;21.93;40.69;101058.75;146620;601;46020;-77
2023/11/30 12:07:12;;;;;;;;;3.00;1.00;;;;;22.04;36.55;101049.19;146616;651;46016;-74
2023/11/30 12:10:06;;;;;;;;;2.33;1.33;;;;;22.11;38.25;101044.84;146622;591;46029;-75
2023/11/30 12:13:09;;;;;;;;;2.00;0.67;;;;;22.08;39.57;101043.06;146618;575;47013;-76
2023/11/30 12:16:05;;;;;;;;;1.00;1.00;;;;;22.03;37.71;101028.94;146623;563;46010;-75
2023/11/30 12:19:09;;;;;;;;;8.00;6.00;;;;;22.00;36.24;101039.47;146617;617;46016;-74
2023/11/30 12:22:14;;;;;;;;;3.00;2.00;;;;;21.86;36.31;101031.41;146622;570;46020;-75
2023/11/30 12:25:10;;;;;;;;;10.67;7.67;;;;;21.82;35.86;101037.53;146611;622;46017;-76
2023/11/30 12:28:06;;;;;;;;;4.33;2.67;;;;;21.80;35.03;101038.38;146618;592;46020;-75
2023/11/30 12:31:26;;;;;;;;;3.00;3.00;;;;;20.61;40.60;100829.59;146617;609;46016;-76
2023/11/30 12:34:35;;;;;;;;;4.33;3.33;;;;;21.87;38.86;101035.84;146613;585;46021;-75
2023/11/30 12:37:31;;;;;;;;;0.00;0.00;;;;;21.88;35.42;101034.09;146613;722;47016;-76
2023/11/30 12:40:40;;;;;;;;;4.00;3.00;;;;;21.93;36.27;101032.34;146616;569;47011;-74
2023/11/30 12:43:59;;;;;;;;;4.67;4.00;;;;;22.02;38.11;101029.81;146618;584;47014;-76
2023/11/30 12:47:02;;;;;;;;;5.00;4.00;;;;;22.05;35.79;101027.19;146622;639;47022;-76
2023/11/30 12:50:08;;;;;;;;;6.33;4.00;;;;;21.56;38.64;100921.19;146617;597;47913;-76
2023/11/30 12:53:14;;;;;;;;;2.00;0.00;;;;;22.24;35.42;101007.16;146622;572;47010;-75
2023/11/30 12:56:27;;;;;;;;;1.00;1.00;;;;;21.02;38.66;100782.59;146620;671;46012;-75
2023/11/30 12:59:31;;;;;;;;;6.00;6.00;;;;;22.23;36.91;100994.81;146620;641;47010;-74
2023/11/30 13:02:43;;;;;;;;;14.00;10.75;;;;;22.09;38.47;100993.78;146617;742;46015;-74
2023/11/30 13:05:40;;;;;;;;;12.67;11.00;;;;;22.05;36.90;100999.91;146614;627;46010;-76
2023/11/30 13:08:41;;;;;;;;;17.50;16.75;;;;;22.09;36.84;101010.53;146610;563;46016;-76
2023/11/30 13:11:33;;;;;;;;;4.33;4.00;;;;;22.04;37.79;101008.72;146611;652;46021;-73
2023/11/30 13:14:30;;;;;;;;;13.00;12.67;;;;;22.02;39.54;101011.31;146607;671;49912;-73
2023/11/30 13:17:26;;;;;;;;;20.50;19.00;;;;;21.94;38.18;101012.16;146613;590;47020;-75
2023/11/30 13:20:33;;;;;;;;;16.00;14.00;;;;;21.85;39.04;101019.09;146613;713;46016;-73
2023/11/30 13:23:50;;;;;;;;;15.25;14.25;;;;;20.76;41.01;100820.09;146614;579;46020;-73
2023/11/30 13:26:48;;;;;;;;;4.00;4.00;;;;;22.01;39.30;101013.97;146609;590;46017;-74
2023/11/30 13:29:43;;;;;;;;;3.67;1.67;;;;;22.15;39.08;101001.78;146621;603;46010;-72
2023/11/30 13:32:45;;;;;;;;;3.33;2.33;;;;;21.55;38.57;100906.19;146617;599;46014;-73
2023/11/30 13:35:48;;;;;;;;;3.00;3.00;;;;;22.10;38.59;100999.06;146617;574;46014;-73
2023/11/30 13:38:54;;;;;;;;;5.50;4.50;;;;;22.16;39.48;100993.00;146618;564;46016;-72
2023/11/30 13:41:50;;;;;;;;;9.00;9.00;;;;;22.04;36.75;101001.66;146621;721;46011;-74
2023/11/30 13:44:45;;;;;;;;;10.67;7.67;;;;;21.81;38.62;101004.09;146615;587;47016;-74
2023/11/30 13:47:47;;;;;;;;;7.00;5.33;;;;;21.60;38.71;101002.13;146621;628;46010;-73
2023/11/30 13:50:42;;;;;;;;;2.00;2.00;;;;;21.48;38.46;101007.25;146615;584;46016;-75
2023/11/30 13:53:55;;;;;;;;;4.00;3.00;;;;;21.19;40.22;101004.25;146618;633;47010;-74
2023/11/30 13:57:11;;;;;;;;;12.33;7.67;;;;;20.64;40.26;100999.13;146618;631;47012;-72
2023/11/30 14:00:07;;;;;;;;;10.50;8.25;;;;;20.16;41.16;100984.31;146620;616;47010;-73
2023/11/30 14:03:25;;;;;;;;;10.33;8.00;;;;;19.66;44.77;100960.66;146618;577;46033;-75
2023/11/30 14:06:23;;;;;;;;;7.00;4.33;;;;;19.81;42.20;101013.56;146608;579;46020;-73
2023/11/30 14:09:26;;;;;;;;;4.00;3.00;;;;;19.78;41.02;101018.78;146621;565;46012;-74
2023/11/30 14:12:29;;;;;;;;;2.00;1.67;;;;;19.83;42.38;101024.09;146621;614;46020;-73
2023/11/30 14:15:28;;;;;;;;;3.33;2.33;;;;;19.86;42.56;101018.91;146618;580;46014;-73
2023/11/30 14:18:27;;;;;;;;;14.50;11.50;;;;;19.82;42.82;101024.97;146620;632;46021;-74
2023/11/30 14:21:32;;;;;;;;;7.67;6.67;;;;;19.64;41.59;101027.22;146612;573;46012;-73
2023/11/30 14:24:25;;;;;;;;;18.50;17.25;;;;;19.40;42.93;101023.25;146620;640;46031;-74
2023/11/30 14:27:30;;;;;;;;;3.67;3.00;;;;;19.23;43.62;101028.16;146613;610;46016;-74